createdAt,value
2019-05-07T00:01:02.925Z,48.19
2019-05-07T00:03:32.965Z,48.26
2019-05-07T00:06:02.792Z,48.28
2019-05-07T00:08:32.314Z,48.29
2019-05-07T00:11:02.285Z,48.29
2019-05-07T00:13:33.288Z,48.28
2019-05-07T00:16:02.602Z,48.26
2019-05-07T00:18:32.322Z,48.27
2019-05-07T00:21:03.359Z,48.29
2019-05-07T00:23:32.508Z,48.27
2019-05-07T00:26:03.309Z,48.25
2019-05-07T00:28:32.564Z,48.28
2019-05-07T00:31:02.863Z,48.30
2019-05-07T00:33:32.916Z,48.26
2019-05-07T00:36:12.389Z,48.30
2019-05-07T00:38:43.466Z,48.35
2019-05-07T00:41:37.996Z,48.32
2019-05-07T00:44:07.655Z,48.31
2019-05-07T00:46:36.863Z,48.30
2019-05-07T00:49:05.844Z,48.30
2019-05-07T00:51:35.879Z,48.31
2019-05-07T00:54:06.287Z,48.31
2019-05-07T00:56:34.461Z,48.30
2019-05-07T00:59:03.493Z,48.35
2019-05-07T01:01:33.758Z,48.44
2019-05-07T01:04:02.901Z,48.34
2019-05-07T01:06:33.095Z,48.33
2019-05-07T01:09:03.194Z,48.42
2019-05-07T01:11:33.523Z,48.38
2019-05-07T01:16:50.010Z,48.43
2019-05-07T01:19:18.996Z,48.47
2019-05-07T01:21:47.857Z,48.56
2019-05-07T01:24:16.708Z,48.52
2019-05-07T01:26:45.640Z,48.59
2019-05-07T01:29:14.731Z,48.55
2019-05-07T01:31:58.777Z,48.70
2019-05-07T01:34:46.267Z,48.67
2019-05-07T01:37:15.062Z,48.73
2019-05-07T01:39:44.046Z,48.73
2019-05-07T01:42:32.753Z,48.72
2019-05-07T01:45:03.062Z,48.67
2019-05-07T01:47:33.142Z,48.68
2019-05-07T01:50:03.029Z,48.73
2019-05-07T01:52:33.189Z,48.66
2019-05-07T01:55:03.183Z,48.79
2019-05-07T01:57:32.850Z,48.79
2019-05-07T02:00:02.718Z,48.92
2019-05-07T02:02:44.220Z,48.97
2019-05-07T02:05:24.865Z,48.91
2019-05-07T02:07:57.632Z,49.03
2019-05-07T02:10:37.622Z,49.07
2019-05-07T02:13:06.643Z,49.12
2019-05-07T02:18:32.442Z,49.13
2019-05-07T02:21:03.203Z,49.09
2019-05-07T02:23:33.052Z,49.10
2019-05-07T02:26:02.528Z,49.07
2019-05-07T02:28:32.980Z,49.15
2019-05-07T02:31:04.011Z,49.04
2019-05-07T02:33:35.074Z,49.09
2019-05-07T02:36:03.469Z,49.03
2019-05-07T02:38:44.267Z,48.98
2019-05-07T02:41:16.350Z,48.95
2019-05-07T02:43:45.401Z,48.92
2019-05-07T02:46:36.326Z,48.87
2019-05-07T02:49:23.290Z,48.87
2019-05-07T02:52:19.285Z,48.84
2019-05-07T02:55:13.329Z,48.97
2019-05-07T02:57:43.481Z,48.98
2019-05-07T03:00:14.692Z,48.87
2019-05-07T03:02:43.834Z,48.86
2019-05-07T03:05:13.857Z,48.84
2019-05-07T03:07:43.005Z,48.80
2019-05-07T03:10:13.898Z,48.75
2019-05-07T03:12:43.192Z,48.80
2019-05-07T03:15:13.243Z,48.78
2019-05-07T03:17:43.107Z,48.75
2019-05-07T03:20:16.303Z,48.78
2019-05-07T03:22:45.164Z,48.72
2019-05-07T03:25:54.241Z,48.66
2019-05-07T03:28:24.254Z,48.65
2019-05-07T03:31:05.964Z,48.71
2019-05-07T03:33:39.966Z,48.67
2019-05-07T03:36:09.082Z,48.72
2019-05-07T03:38:38.155Z,48.64
2019-05-07T03:41:07.304Z,48.62
2019-05-07T03:43:55.444Z,48.53
2019-05-07T03:46:24.279Z,48.54
2019-05-07T03:48:53.342Z,48.59
2019-05-07T03:51:23.793Z,48.59
2019-05-07T03:53:53.663Z,48.56
2019-05-07T03:56:23.609Z,48.55
2019-05-07T03:58:53.180Z,48.51
2019-05-07T04:01:24.047Z,48.54
2019-05-07T04:03:53.402Z,48.52
2019-05-07T04:06:23.422Z,48.48
2019-05-07T04:08:53.326Z,48.45
2019-05-07T04:11:23.148Z,48.39
2019-05-07T04:13:53.515Z,48.43
2019-05-07T04:16:23.947Z,48.32
2019-05-07T04:18:53.224Z,48.43
2019-05-07T04:21:23.193Z,48.38
2019-05-07T04:24:07.114Z,48.38
2019-05-07T04:26:42.940Z,48.35
2019-05-07T04:29:15.766Z,48.29
2019-05-07T04:31:44.849Z,48.30
2019-05-07T04:34:25.355Z,48.26
2019-05-07T04:36:54.146Z,48.23
2019-05-07T04:39:23.520Z,48.25
2019-05-07T04:41:53.177Z,48.24
2019-05-07T04:44:23.517Z,48.22
2019-05-07T04:46:53.321Z,48.26
2019-05-07T04:49:23.803Z,48.22
2019-05-07T04:52:03.981Z,48.19
2019-05-07T04:54:33.270Z,48.11
2019-05-07T04:57:03.619Z,48.18
2019-05-07T04:59:33.075Z,48.22
2019-05-07T05:02:10.063Z,48.14
2019-05-07T05:04:38.985Z,47.96
2019-05-07T05:07:08.001Z,47.90
2019-05-07T05:09:37.082Z,47.98
2019-05-07T05:12:06.059Z,47.76
2019-05-07T05:14:35.361Z,47.67
2019-05-07T05:17:04.356Z,47.62
2019-05-07T05:19:33.384Z,47.60
2019-05-07T05:22:23.633Z,47.66
2019-05-07T05:25:12.115Z,47.73
2019-05-07T05:27:42.908Z,47.77
2019-05-07T05:30:13.875Z,47.89
2019-05-07T05:32:42.791Z,47.82
2019-05-07T05:35:12.609Z,47.92
2019-05-07T05:37:42.890Z,48.22
2019-05-07T05:40:12.354Z,48.86
2019-05-07T05:42:46.564Z,50.59
2019-05-07T05:45:34.809Z,50.73
2019-05-07T05:48:07.371Z,51.41
2019-05-07T05:50:42.320Z,51.74
2019-05-07T05:53:39.499Z,52.08
2019-05-07T05:56:18.714Z,52.57
2019-05-07T05:58:57.312Z,52.29
2019-05-07T06:01:52.094Z,51.93
2019-05-07T06:04:28.635Z,51.91
2019-05-07T06:07:11.277Z,51.81
2019-05-07T06:09:54.001Z,51.83
2019-05-07T06:12:44.025Z,51.68
2019-05-07T06:15:26.436Z,51.44
2019-05-07T06:18:02.737Z,51.25
2019-05-07T06:20:48.678Z,51.09
2019-05-07T06:23:35.673Z,50.75
2019-05-07T06:26:05.338Z,50.77
2019-05-07T06:28:35.655Z,50.92
2019-05-07T06:31:04.766Z,51.03
2019-05-07T06:33:33.731Z,51.09
2019-05-07T06:36:02.995Z,51.42
2019-05-07T06:38:36.316Z,52.17
2019-05-07T06:41:33.219Z,53.08
2019-05-07T06:44:06.092Z,53.04
2019-05-07T06:46:35.269Z,52.33
2019-05-07T06:49:04.257Z,52.13
2019-05-07T06:51:33.250Z,51.84
2019-05-07T06:54:02.869Z,51.72
2019-05-07T06:56:32.587Z,51.70
2019-05-07T06:59:07.150Z,51.88
2019-05-07T07:01:55.081Z,51.53
2019-05-07T07:04:42.343Z,51.30
2019-05-07T07:07:37.108Z,51.55
2019-05-07T07:10:34.934Z,51.50
2019-05-07T07:13:03.939Z,51.61
2019-05-07T07:15:32.971Z,51.74
2019-05-07T07:18:03.156Z,51.82
2019-05-07T07:20:32.761Z,51.75
2019-05-07T07:23:02.335Z,51.94
2019-05-07T07:25:32.605Z,51.95
2019-05-07T07:28:02.781Z,51.77
2019-05-07T07:30:52.679Z,51.72
2019-05-07T07:33:23.338Z,51.68
2019-05-07T07:35:52.256Z,51.52
2019-05-07T07:38:33.297Z,51.02
2019-05-07T07:41:14.136Z,49.64
2019-05-07T07:43:43.068Z,49.44
2019-05-07T07:46:13.156Z,49.31
2019-05-07T07:48:43.523Z,48.93
2019-05-07T07:51:13.893Z,47.77
2019-05-07T07:53:43.255Z,47.67
2019-05-07T07:56:52.336Z,46.40
2019-05-07T07:59:45.423Z,47.09
2019-05-07T08:02:26.377Z,47.22
2019-05-07T08:05:14.144Z,46.95
2019-05-07T08:07:43.079Z,46.91
2019-05-07T08:10:12.874Z,47.11
2019-05-07T08:12:42.327Z,47.19
2019-05-07T08:15:18.236Z,47.39
2019-05-07T08:17:42.274Z,46.95
2019-05-07T08:20:13.999Z,46.66
2019-05-07T08:22:43.032Z,46.38
2019-05-07T08:25:12.562Z,46.18
2019-05-07T08:27:42.098Z,46.21
2019-05-07T08:33:05.333Z,46.64
2019-05-07T08:35:56.391Z,46.88
2019-05-07T08:38:25.428Z,46.99
2019-05-07T08:40:54.319Z,46.34
2019-05-07T08:43:23.478Z,42.13
2019-05-07T08:46:11.960Z,43.62
2019-05-07T08:48:45.071Z,44.57
2019-05-07T08:51:14.155Z,45.17
2019-05-07T08:53:42.988Z,45.40
2019-05-07T08:56:12.542Z,45.46
2019-05-07T08:58:42.068Z,45.99
2019-05-07T09:01:11.835Z,46.02
2019-05-07T09:03:44.166Z,46.24
2019-05-07T09:06:14.226Z,46.27
2019-05-07T09:08:43.720Z,46.33
2019-05-07T09:11:13.295Z,46.50
2019-05-07T09:13:42.504Z,46.76
2019-05-07T09:16:13.015Z,46.79
2019-05-07T09:18:42.367Z,46.83
2019-05-07T09:21:12.500Z,46.82
2019-05-07T09:23:42.370Z,46.85
2019-05-07T09:26:13.201Z,46.85
2019-05-07T09:28:59.895Z,47.04
2019-05-07T09:31:36.581Z,47.13
2019-05-07T09:34:05.495Z,47.33
2019-05-07T09:36:42.438Z,47.52
2019-05-07T09:39:12.882Z,47.76
2019-05-07T09:41:41.794Z,47.98
2019-05-07T09:44:11.941Z,48.12
2019-05-07T09:46:42.887Z,48.31
2019-05-07T09:49:12.082Z,48.40
2019-05-07T09:51:42.682Z,48.39
2019-05-07T09:54:12.720Z,48.42
2019-05-07T09:56:42.222Z,48.16
2019-05-07T09:59:12.567Z,47.97
2019-05-07T10:01:40.823Z,47.84
2019-05-07T10:04:10.784Z,47.39
2019-05-07T10:06:39.792Z,47.50
2019-05-07T10:09:08.820Z,47.54
2019-05-07T10:11:43.593Z,47.58
2019-05-07T10:14:12.814Z,47.83
2019-05-07T10:17:02.742Z,47.66
2019-05-07T10:19:32.473Z,47.21
2019-05-07T10:22:02.344Z,47.04
2019-05-07T10:24:31.412Z,46.88
2019-05-07T10:27:02.261Z,46.92
2019-05-07T10:29:32.246Z,46.94
2019-05-07T10:32:02.244Z,46.98
2019-05-07T10:34:31.399Z,46.80
2019-05-07T10:37:02.649Z,46.53
2019-05-07T10:39:32.522Z,46.77
2019-05-07T10:42:01.901Z,46.82
2019-05-07T10:44:36.243Z,46.69
2019-05-07T10:47:24.110Z,46.81
2019-05-07T10:50:11.994Z,46.93
2019-05-07T10:52:42.510Z,46.92
2019-05-07T10:55:12.153Z,46.89
2019-05-07T10:57:42.278Z,46.82
2019-05-07T11:00:14.618Z,46.83
2019-05-07T11:02:43.649Z,46.75
2019-05-07T11:05:13.092Z,46.83
2019-05-07T11:07:42.341Z,47.37
2019-05-07T11:10:12.409Z,47.66
2019-05-07T11:12:42.474Z,47.94
2019-05-07T11:15:12.586Z,47.93
2019-05-07T11:18:04.155Z,47.54
2019-05-07T11:20:45.666Z,47.25
2019-05-07T11:23:03.947Z,47.14
2019-05-07T11:25:33.143Z,47.28
2019-05-07T11:28:02.810Z,47.33
2019-05-07T11:30:32.134Z,47.33
2019-05-07T11:33:02.730Z,47.34
2019-05-07T11:35:32.028Z,47.36
2019-05-07T11:38:11.024Z,47.43
2019-05-07T11:40:34.744Z,47.29
2019-05-07T11:43:33.657Z,47.09
2019-05-07T11:46:13.494Z,47.03
2019-05-07T11:49:06.326Z,46.95
2019-05-07T11:51:46.282Z,46.89
2019-05-07T11:54:15.216Z,46.69
2019-05-07T11:56:44.252Z,46.66
2019-05-07T11:59:13.624Z,46.59
2019-05-07T12:01:47.808Z,46.00
2019-05-07T12:04:17.436Z,45.86
2019-05-07T12:06:46.449Z,46.05
2019-05-07T12:09:15.371Z,46.38
2019-05-07T12:11:44.446Z,46.46
2019-05-07T12:14:13.425Z,44.20
2019-05-07T12:16:42.747Z,44.52
2019-05-07T12:19:16.408Z,44.38
2019-05-07T12:21:44.158Z,44.68
2019-05-07T12:24:16.260Z,44.74
2019-05-07T12:26:44.558Z,45.01
2019-05-07T12:29:13.592Z,44.41
2019-05-07T12:31:55.734Z,44.75
2019-05-07T12:34:46.990Z,44.65
2019-05-07T12:37:15.965Z,44.54
2019-05-07T12:39:44.995Z,44.66
2019-05-07T12:42:13.936Z,44.38
2019-05-07T12:44:43.550Z,44.34
2019-05-07T12:47:12.596Z,44.22
2019-05-07T12:49:42.916Z,44.26
2019-05-07T12:52:31.916Z,44.51
2019-05-07T12:55:23.138Z,44.41
2019-05-07T12:57:52.023Z,44.13
2019-05-07T13:00:38.419Z,44.34
2019-05-07T13:03:25.178Z,44.40
2019-05-07T13:05:54.425Z,44.31
2019-05-07T13:08:23.663Z,44.45
2019-05-07T13:10:52.771Z,44.67
2019-05-07T13:13:21.692Z,44.60
2019-05-07T13:15:51.790Z,44.67
2019-05-07T13:18:22.500Z,44.77
2019-05-07T13:20:51.946Z,44.79
2019-05-07T13:23:22.525Z,44.77
2019-05-07T13:25:52.237Z,44.77
2019-05-07T13:28:21.228Z,44.90
2019-05-07T13:30:52.478Z,44.88
2019-05-07T13:33:22.662Z,44.97
2019-05-07T13:35:52.338Z,45.01
2019-05-07T13:38:42.540Z,44.99
2019-05-07T13:41:35.668Z,45.07
2019-05-07T13:44:14.671Z,44.67
2019-05-07T13:46:44.977Z,44.05
2019-05-07T13:49:13.983Z,43.83
2019-05-07T13:51:42.834Z,43.90
2019-05-07T13:54:12.894Z,44.03
2019-05-07T13:56:42.063Z,44.17
2019-05-07T13:59:13.141Z,44.23
2019-05-07T14:01:51.286Z,44.32
2019-05-07T14:04:22.161Z,44.38
2019-05-07T14:06:52.815Z,44.39
2019-05-07T14:09:24.363Z,44.47
2019-05-07T14:11:53.475Z,44.65
2019-05-07T14:14:22.599Z,44.67
2019-05-07T14:16:53.036Z,44.68
2019-05-07T14:19:22.665Z,44.69
2019-05-07T14:21:52.507Z,44.79
2019-05-07T14:24:22.393Z,44.93
2019-05-07T14:26:52.828Z,44.97
2019-05-07T14:29:24.442Z,45.02
2019-05-07T14:32:03.243Z,44.65
2019-05-07T14:34:35.388Z,44.25
2019-05-07T14:37:22.074Z,43.97
2019-05-07T14:39:51.810Z,43.78
2019-05-07T14:42:28.217Z,43.77
2019-05-07T14:44:57.202Z,43.61
2019-05-07T14:47:26.257Z,43.61
2019-05-07T14:49:55.234Z,43.63
2019-05-07T14:52:32.207Z,43.64
2019-05-07T14:54:54.958Z,43.63
2019-05-07T14:57:23.832Z,43.56
2019-05-07T14:59:52.711Z,43.48
2019-05-07T15:02:23.493Z,43.44
2019-05-07T15:04:52.597Z,43.45
2019-05-07T15:07:22.633Z,43.25
2019-05-07T15:09:52.099Z,43.30
2019-05-07T15:12:23.127Z,43.39
2019-05-07T15:14:52.743Z,43.19
2019-05-07T15:17:42.006Z,43.30
2019-05-07T15:20:11.171Z,43.41
2019-05-07T15:22:52.508Z,43.56
2019-05-07T15:25:22.538Z,43.43
2019-05-07T15:27:52.663Z,43.61
2019-05-07T15:30:22.464Z,43.66
2019-05-07T15:32:52.134Z,43.72
2019-05-07T15:35:21.117Z,43.84
2019-05-07T15:37:51.829Z,43.86
2019-05-07T15:40:22.532Z,43.92
2019-05-07T15:42:52.492Z,44.03
2019-05-07T15:45:21.850Z,44.09
2019-05-07T15:47:52.613Z,44.11
2019-05-07T15:50:23.751Z,44.14
2019-05-07T15:53:01.762Z,44.30
2019-05-07T15:55:31.033Z,44.39
2019-05-07T15:58:02.661Z,44.39
2019-05-07T16:00:33.518Z,44.41
2019-05-07T16:03:25.700Z,44.44
2019-05-07T16:05:54.727Z,44.54
2019-05-07T16:08:24.732Z,44.61
2019-05-07T16:10:53.696Z,44.61
2019-05-07T16:13:26.560Z,44.68
2019-05-07T16:15:55.534Z,44.75
2019-05-07T16:18:29.431Z,44.67
2019-05-07T16:20:58.361Z,44.68
2019-05-07T16:23:27.375Z,44.82
2019-05-07T16:25:56.486Z,44.80
2019-05-07T16:28:25.478Z,44.71
2019-05-07T16:30:54.713Z,44.75
2019-05-07T16:33:23.653Z,44.71
2019-05-07T16:35:52.676Z,44.85
2019-05-07T16:38:22.160Z,44.85
2019-05-07T16:40:52.211Z,45.02
2019-05-07T16:43:22.107Z,45.03
2019-05-07T16:45:51.794Z,44.92
2019-05-07T16:48:23.103Z,44.99
2019-05-07T16:50:52.336Z,45.01
2019-05-07T16:53:29.655Z,44.96
2019-05-07T16:55:52.307Z,44.88
2019-05-07T16:58:49.216Z,44.87
2019-05-07T17:01:18.262Z,44.95
2019-05-07T17:03:56.129Z,44.88
2019-05-07T17:06:25.369Z,44.89
2019-05-07T17:09:13.401Z,44.96
2019-05-07T17:11:43.659Z,45.12
2019-05-07T17:14:13.220Z,44.98
2019-05-07T17:16:41.996Z,44.99
2019-05-07T17:19:12.270Z,44.94
2019-05-07T17:21:40.374Z,45.01
2019-05-07T17:24:09.397Z,45.04
2019-05-07T17:26:38.665Z,45.04
2019-05-07T17:29:07.642Z,44.99
2019-05-07T17:31:36.431Z,45.05
2019-05-07T17:34:05.451Z,45.05
2019-05-07T17:36:34.596Z,45.08
2019-05-07T17:39:05.471Z,45.05
2019-05-07T17:41:34.520Z,45.05
2019-05-07T17:44:03.535Z,45.07
2019-05-07T17:46:33.120Z,45.08
2019-05-07T17:49:02.618Z,45.17
2019-05-07T17:51:43.508Z,45.12
2019-05-07T17:54:13.413Z,45.23
2019-05-07T17:56:43.110Z,45.24
2019-05-07T17:59:12.993Z,45.28
2019-05-07T18:02:15.808Z,45.32
2019-05-07T18:04:51.273Z,45.32
2019-05-07T18:07:17.710Z,45.34
2019-05-07T18:09:46.632Z,45.33
2019-05-07T18:12:15.621Z,45.26
2019-05-07T18:14:44.643Z,45.41
2019-05-07T18:17:35.576Z,45.49
2019-05-07T18:20:04.861Z,45.51
2019-05-07T18:22:33.801Z,45.51
2019-05-07T18:25:02.814Z,45.48
2019-05-07T18:27:32.976Z,45.55
2019-05-07T18:30:02.847Z,45.57
2019-05-07T18:32:42.726Z,45.64
2019-05-07T18:35:12.599Z,45.71
2019-05-07T18:37:52.580Z,45.68
2019-05-07T18:40:22.343Z,45.70
2019-05-07T18:42:52.427Z,45.75
2019-05-07T18:45:21.760Z,45.76
2019-05-07T18:47:51.703Z,45.79
2019-05-07T18:50:22.609Z,45.78
2019-05-07T18:52:52.217Z,45.82
2019-05-07T18:55:22.651Z,45.78
2019-05-07T18:57:52.146Z,45.75
2019-05-07T19:00:28.167Z,45.75
2019-05-07T19:02:57.343Z,45.69
2019-05-07T19:05:26.426Z,45.72
2019-05-07T19:08:04.280Z,45.75
2019-05-07T19:10:26.230Z,45.85
2019-05-07T19:12:55.232Z,45.95
2019-05-07T19:15:24.455Z,45.99
2019-05-07T19:17:53.507Z,46.06
2019-05-07T19:20:22.417Z,46.08
2019-05-07T19:22:51.917Z,46.11
2019-05-07T19:25:21.035Z,46.18
2019-05-07T19:27:50.056Z,46.20
2019-05-07T19:30:41.922Z,46.20
2019-05-07T19:33:12.298Z,46.23
2019-05-07T19:35:41.872Z,46.28
2019-05-07T19:38:10.860Z,46.30
2019-05-07T19:40:41.918Z,46.38
2019-05-07T19:43:12.907Z,46.38
2019-05-07T19:45:41.921Z,46.39
2019-05-07T19:48:12.420Z,46.41
2019-05-07T19:50:42.049Z,46.42
2019-05-07T19:53:12.514Z,46.45
2019-05-07T19:55:59.058Z,46.46
2019-05-07T19:58:28.061Z,46.44
2019-05-07T20:00:57.441Z,46.43
2019-05-07T20:03:26.680Z,46.48
2019-05-07T20:05:55.655Z,46.47
2019-05-07T20:08:24.726Z,46.45
2019-05-07T20:10:58.794Z,46.47
2019-05-07T20:13:27.771Z,46.52
2019-05-07T20:16:07.084Z,46.50
2019-05-07T20:18:36.017Z,46.49
2019-05-07T20:21:04.878Z,46.50
2019-05-07T20:23:33.861Z,46.50
2019-05-07T20:26:03.115Z,46.50
2019-05-07T20:28:32.773Z,46.47
2019-05-07T20:31:01.794Z,46.47
2019-05-07T20:33:32.781Z,46.46
2019-05-07T20:36:02.658Z,46.47
2019-05-07T20:38:32.127Z,46.42
2019-05-07T20:41:02.094Z,46.43
2019-05-07T20:43:32.672Z,46.40
2019-05-07T20:46:02.687Z,46.48
2019-05-07T20:48:32.468Z,46.44
2019-05-07T20:51:01.963Z,46.41
2019-05-07T20:53:48.397Z,46.44
2019-05-07T20:56:18.328Z,46.47
2019-05-07T20:58:47.242Z,46.38
2019-05-07T21:01:16.047Z,46.41
2019-05-07T21:03:45.155Z,46.37
2019-05-07T21:06:14.147Z,46.37
2019-05-07T21:08:43.172Z,46.37
2019-05-07T21:11:12.144Z,46.35
2019-05-07T21:13:44.102Z,46.35
2019-05-07T21:16:12.603Z,46.37
2019-05-07T21:18:42.212Z,46.38
2019-05-07T21:21:12.471Z,46.40
2019-05-07T21:23:43.457Z,46.38
2019-05-07T21:26:13.059Z,46.37
2019-05-07T21:28:43.145Z,46.39
2019-05-07T21:31:12.250Z,46.30
2019-05-07T21:33:42.915Z,46.32
2019-05-07T21:36:12.287Z,46.33
2019-05-07T21:38:42.565Z,46.33
2019-05-07T21:41:12.911Z,46.33
2019-05-07T21:43:45.721Z,46.27
2019-05-07T21:46:13.016Z,46.27
2019-05-07T21:48:42.263Z,46.26
2019-05-07T21:51:12.175Z,46.25
2019-05-07T21:53:47.159Z,46.25
2019-05-07T21:56:43.990Z,46.24
2019-05-07T21:59:16.245Z,46.23
2019-05-07T22:01:47.179Z,46.22
2019-05-07T22:04:16.103Z,46.20
2019-05-07T22:06:45.553Z,46.17
2019-05-07T22:09:15.405Z,46.21
2019-05-07T22:11:44.358Z,46.17
2019-05-07T22:14:13.489Z,46.22
2019-05-07T22:16:42.748Z,46.25
2019-05-07T22:19:12.267Z,46.20
2019-05-07T22:21:43.175Z,46.22
2019-05-07T22:24:14.686Z,46.20
2019-05-07T22:26:42.923Z,46.17
2019-05-07T22:29:12.616Z,46.23
2019-05-07T22:32:02.758Z,46.17
2019-05-07T22:34:36.354Z,46.12
2019-05-07T22:37:05.179Z,46.16
2019-05-07T22:39:34.236Z,46.09
2019-05-07T22:42:03.486Z,46.08
2019-05-07T22:44:32.468Z,46.01
2019-05-07T22:47:18.741Z,46.07
2019-05-07T22:49:48.849Z,46.00
2019-05-07T22:52:18.543Z,46.02
2019-05-07T22:54:47.585Z,46.07
2019-05-07T22:57:44.467Z,46.13
2019-05-07T23:00:22.487Z,46.07
2019-05-07T23:02:51.698Z,46.02
2019-05-07T23:05:22.964Z,46.06
2019-05-07T23:07:52.636Z,45.99
2019-05-07T23:10:22.521Z,45.96
2019-05-07T23:12:51.695Z,46.01
2019-05-07T23:15:22.591Z,45.99
2019-05-07T23:17:51.421Z,46.01
2019-05-07T23:20:24.091Z,46.03
2019-05-07T23:22:52.089Z,46.01
2019-05-07T23:25:24.306Z,46.04
2019-05-07T23:27:52.469Z,46.02
2019-05-07T23:30:22.378Z,45.98
2019-05-07T23:32:52.841Z,46.00
2019-05-07T23:35:22.292Z,45.96
2019-05-07T23:37:52.997Z,45.91
2019-05-07T23:40:43.768Z,45.88
2019-05-07T23:43:13.213Z,45.83
2019-05-07T23:45:42.121Z,45.89
2019-05-07T23:48:12.357Z,45.85
2019-05-07T23:50:41.887Z,45.79
2019-05-07T23:53:12.948Z,45.83
2019-05-07T23:55:42.476Z,45.85
2019-05-07T23:58:13.858Z,45.72
